Matthews, IN (46957)

7:19 PM EDT on July 28, 2016 (GMT -0400)
Delaware County-Johnson | | Change Station

Elev 938 ft 40.23 °N, 85.39 °W | Updated 26 minutes ago

Clear
Clear
86 °F
Feels Like 89 °F
N
5
Wind Variable Wind from NNW

Today
High -- | Low -- °F
--% Chance of Precip.
Yesterday
High -- | Low -- °F
Precip. -- in
Pressure 29.85 in
Visibility 10.0 miles
Clouds Clear
Heat Index 89 °F
Dew Point 67 °F
Humidity 53%
Rainfall 0.00 in
Snow Depth Not available.
6:36 AM 9:00 PM
Waning Crescent, 28% visible
METAR KMIE 282253Z 33004KT 10SM CLR 30/19 A2988 RMK AO2 SLP106 T03000194
Pressure 29.85 in
Visibility 10.0 miles
Clouds Clear
Heat Index 89 °F
Dew Point 67 °F
Humidity 53%
Rainfall 0.00 in
Snow Depth Not available.
6:36 AM 9:00 PM
Waning Crescent, 28% visible
METAR KMIE 282253Z 33004KT 10SM CLR 30/19 A2988 RMK AO2 SLP106 T03000194

10-Day Weather Forecast

Almanac

Astronomy

Jul. 28, 2016 Rise Set
Actual Time
Civil Twilight
Nautical Twilight
Astronomical Twilight
Moon
Length of Visible Light
Length of Day
Tomorrow will be .
, % of the Moon is Illuminated

Today's Extremes

State Highs State Lows

Community

WunderPhotos

Upload Photos

1,928,226 photos uploaded!

WunderBlog® & News

Nearby

Air Quality

  Air Quality AQ Index Pollutant
Not available.

Snow Depth

Station Depth Elevation

Earthquake Activity

City Distance Mag. Time & Date
Minimum magnitude displayed is 2.5.

Coastal Water Temperatures

Place Temperature

Stations

Nearby Weather Stations

Station Location Temp. Windchill Dew Point Humidity Wind Precip. Elev Updated Type
                   

Watches & Warnings

There are currently no watches in effect.